Time;durP1;ratioP1;P1;durP2;ratioP2;P2;SDS_P1;SDS_P2;PMS_P1;PMS_P2;Temp;Humidity;BMP_temperature;BMP_pressure;BME280_temperature;BME280_humidity;BME280_pressure;Samples;Min_cycle;Max_cycle;Signal;HPM_P1;HPM_P2
2022/08/28 00:00:01;;;;;;;6.28;3.33;;;15.30;58.50;;;;;;4986941;28;20042;-68
2022/08/28 00:02:27;;;;;;;6.85;3.60;;;15.20;58.60;;;;;;4986462;28;20478;-68
2022/08/28 00:04:52;;;;;;;7.63;3.22;;;15.20;58.70;;;;;;4993178;28;20046;-68
2022/08/28 00:07:18;;;;;;;6.95;3.67;;;15.20;58.80;;;;;;4988374;28;20040;-68
2022/08/28 00:09:44;;;;;;;5.15;3.08;;;15.10;58.80;;;;;;4993273;28;20050;-68
2022/08/28 00:12:11;;;;;;;6.63;3.38;;;15.10;58.90;;;;;;4978207;28;20049;-68
2022/08/28 00:14:37;;;;;;;6.85;3.65;;;15.00;58.90;;;;;;4981754;28;20434;-68
2022/08/28 00:17:03;;;;;;;5.72;3.60;;;15.00;59.10;;;;;;4979355;28;20046;-68
2022/08/28 00:19:29;;;;;;;7.28;3.55;;;15.00;59.20;;;;;;5006564;28;20101;-68
2022/08/28 00:21:55;;;;;;;8.68;4.35;;;15.00;59.30;;;;;;5005706;28;20043;-68
2022/08/28 00:24:21;;;;;;;8.00;4.05;;;15.00;59.40;;;;;;4975765;28;20043;-68
2022/08/28 00:29:31;;;;;;;8.38;3.97;;;14.90;59.40;;;;;;5009204;28;20108;-68
2022/08/28 00:31:57;;;;;;;7.18;3.53;;;14.90;59.40;;;;;;4983197;28;20078;-68
2022/08/28 00:34:23;;;;;;;6.57;3.60;;;14.90;59.40;;;;;;4983076;28;20039;-68
2022/08/28 00:36:49;;;;;;;5.78;3.08;;;14.80;59.30;;;;;;4982399;28;20058;-68
2022/08/28 00:39:15;;;;;;;8.40;3.60;;;14.80;59.30;;;;;;4980544;28;20454;-68
2022/08/28 00:41:41;;;;;;;7.25;3.47;;;14.80;59.30;;;;;;4981655;28;20137;-68
2022/08/28 00:44:16;;;;;;;6.60;2.97;;;14.80;59.30;;;;;;4992391;28;20123;-68
2022/08/28 00:46:44;;;;;;;6.30;3.25;;;14.70;59.40;;;;;;4984139;28;20070;-68
2022/08/28 00:49:12;;;;;;;4.78;3.38;;;14.70;59.30;;;;;;4973241;28;20589;-68
2022/08/28 00:54:25;;;;;;;7.28;3.17;;;14.70;59.40;;;;;;4986544;28;20125;-68
2022/08/28 00:56:53;;;;;;;8.50;3.50;;;14.60;59.40;;;;;;4987919;28;20050;-68
2022/08/28 00:59:22;;;;;;;7.80;3.35;;;14.60;59.40;;;;;;4974218;28;20074;-68
2022/08/28 01:01:52;;;;;;;7.38;3.55;;;14.60;59.50;;;;;;4979292;28;20042;-68
2022/08/28 01:04:20;;;;;;;6.28;3.17;;;14.50;59.90;;;;;;4992014;28;20554;-68
2022/08/28 01:06:52;;;;;;;6.55;2.97;;;14.50;59.70;;;;;;4980041;28;20038;-68
2022/08/28 01:09:19;;;;;;;7.95;3.50;;;14.50;59.90;;;;;;4992301;28;20069;-68
2022/08/28 01:11:46;;;;;;;6.65;3.35;;;14.50;60.00;;;;;;4975552;28;20050;-68
2022/08/28 01:14:14;;;;;;;5.38;3.25;;;14.50;60.10;;;;;;4971122;28;20046;-68
2022/08/28 01:16:42;;;;;;;7.90;3.42;;;14.50;60.30;;;;;;4976246;28;20046;-68
2022/08/28 01:19:17;;;;;;;6.82;3.25;;;14.40;60.40;;;;;;4992469;28;20073;-68
2022/08/28 01:21:54;;;;;;;9.00;3.50;;;14.40;60.50;;;;;;4972508;28;20074;-68
2022/08/28 01:24:20;;;;;;;5.03;2.88;;;14.40;60.60;;;;;;4978591;28;20051;-68
2022/08/28 01:26:46;;;;;;;8.25;3.40;;;14.30;60.60;;;;;;4986508;28;20055;-68
2022/08/28 01:29:12;;;;;;;8.45;3.53;;;14.30;60.70;;;;;;4981375;28;20043;-68
2022/08/28 01:31:39;;;;;;;5.43;3.60;;;14.30;60.80;;;;;;4974290;28;20129;-68
2022/08/28 01:34:06;;;;;;;6.60;3.25;;;14.30;60.90;;;;;;4975696;28;20166;-68
2022/08/28 01:36:32;;;;;;;7.22;3.22;;;14.30;60.90;;;;;;4987985;28;20585;-68
2022/08/28 01:39:07;;;;;;;6.80;3.08;;;14.30;60.90;;;;;;4991421;28;20054;-68
2022/08/28 01:41:34;;;;;;;;;;;14.30;61.00;;;;;;4992531;28;20042;-68
2022/08/28 01:44:00;;;;;;;4.72;3.00;;;14.20;60.30;;;;;;4971547;28;19922;-68
2022/08/28 01:46:25;;;;;;;7.30;3.17;;;14.20;60.80;;;;;;4974900;28;20041;-68
2022/08/28 01:48:51;;;;;;;6.30;3.55;;;14.30;60.90;;;;;;4979248;28;20047;-68
2022/08/28 01:51:17;;;;;;;6.40;3.60;;;14.20;60.80;;;;;;4991881;28;20038;-68
2022/08/28 01:53:42;;;;;;;8.93;3.97;;;14.10;60.70;;;;;;4992566;28;20042;-68
2022/08/28 01:56:12;;;;;;;5.93;2.58;;;14.10;60.70;;;;;;4985757;28;20498;-68
2022/08/28 01:58:39;;;;;;;4.75;2.90;;;14.10;60.70;;;;;;4982828;28;20049;-68
2022/08/28 02:01:13;;;;;;;5.95;2.95;;;14.10;60.60;;;;;;4993655;28;20046;-68
2022/08/28 02:03:41;;;;;;;4.82;2.95;;;14.10;60.50;;;;;;4983763;28;20611;-68
2022/08/28 02:06:08;;;;;;;5.05;3.17;;;14.10;60.40;;;;;;4976121;28;20039;-69
2022/08/28 02:08:35;;;;;;;5.05;2.60;;;14.00;60.40;;;;;;4979612;28;20042;-68
2022/08/28 02:11:02;;;;;;;5.55;3.08;;;14.00;60.40;;;;;;4976262;28;20042;-68
2022/08/28 02:13:28;;;;;;;7.55;3.30;;;14.00;60.40;;;;;;4984747;28;20145;-68
2022/08/28 02:15:53;;;;;;;6.63;3.22;;;14.00;60.40;;;;;;4995515;28;20101;-69
2022/08/28 02:18:19;;;;;;;7.72;3.60;;;13.90;60.40;;;;;;4991504;28;20039;-70
2022/08/28 02:20:45;;;;;;;6.07;3.00;;;13.90;60.50;;;;;;4995390;28;20402;-70
2022/08/28 02:23:11;;;;;;;5.63;3.17;;;13.90;60.70;;;;;;4994062;28;20533;-70
2022/08/28 02:25:38;;;;;;;5.80;3.70;;;13.90;61.00;;;;;;4987043;28;20046;-70
2022/08/28 02:28:04;;;;;;;8.20;3.15;;;13.80;61.20;;;;;;4979189;28;20474;-70
2022/08/28 02:30:30;;;;;;;7.25;3.47;;;13.80;61.30;;;;;;4995249;28;20505;-70
2022/08/28 02:32:56;;;;;;;7.47;3.45;;;13.80;61.40;;;;;;4993568;28;20049;-70
2022/08/28 02:35:23;;;;;;;7.53;3.58;;;13.80;61.50;;;;;;4977128;28;20636;-70
2022/08/28 02:37:50;;;;;;;9.30;4.10;;;13.80;61.60;;;;;;4983102;28;20057;-70
2022/08/28 02:40:19;;;;;;;4.85;3.40;;;13.80;61.70;;;;;;4982157;28;20038;-70
2022/08/28 02:42:45;;;;;;;7.30;4.22;;;13.80;61.70;;;;;;4976590;28;20510;-70
2022/08/28 02:45:13;;;;;;;8.05;3.42;;;13.70;61.80;;;;;;4994075;28;20042;-70
2022/08/28 02:47:41;;;;;;;6.88;3.42;;;13.70;62.00;;;;;;4994979;28;20038;-68
2022/08/28 02:50:08;;;;;;;6.80;3.50;;;13.70;62.10;;;;;;4994562;28;20382;-68
2022/08/28 02:52:36;;;;;;;7.13;3.28;;;13.70;62.30;;;;;;4993886;28;20046;-68
2022/08/28 02:55:04;;;;;;;6.80;3.20;;;13.70;62.40;;;;;;4977385;28;20054;-68
2022/08/28 02:57:30;;;;;;;6.97;3.45;;;13.60;62.50;;;;;;4975523;28;20077;-68
2022/08/28 02:59:57;;;;;;;4.70;2.85;;;13.60;62.50;;;;;;4975471;28;20042;-68
2022/08/28 03:02:23;;;;;;;7.55;3.25;;;13.60;62.60;;;;;;4980131;28;20547;-68
2022/08/28 03:04:49;;;;;;;5.93;3.35;;;13.60;62.60;;;;;;4982287;28;20043;-68
2022/08/28 03:07:15;;;;;;;4.97;2.97;;;13.60;62.70;;;;;;4985688;28;20042;-68
2022/08/28 03:09:42;;;;;;;6.20;3.47;;;13.60;62.70;;;;;;4983235;28;20042;-68
2022/08/28 03:12:11;;;;;;;8.13;3.30;;;13.60;62.70;;;;;;4988522;28;20097;-68
2022/08/28 03:14:38;;;;;;;7.68;3.10;;;13.60;62.70;;;;;;4990760;28;20401;-68
2022/08/28 03:17:06;;;;;;;5.18;3.10;;;13.50;62.60;;;;;;4981624;28;20116;-68
2022/08/28 03:19:32;;;;;;;6.53;3.30;;;13.50;62.50;;;;;;4982779;28;20501;-68
2022/08/28 03:21:57;;;;;;;12.07;3.97;;;13.50;62.40;;;;;;4993305;28;20060;-68
2022/08/28 03:24:23;;;;;;;6.47;3.00;;;13.50;62.40;;;;;;4988119;28;20047;-68
2022/08/28 03:26:49;;;;;;;6.03;3.47;;;13.50;62.30;;;;;;4974656;28;20078;-68
2022/08/28 03:29:15;;;;;;;6.55;3.15;;;13.40;62.30;;;;;;4985198;28;20454;-68
2022/08/28 03:31:41;;;;;;;4.88;2.88;;;13.40;62.30;;;;;;4994305;28;20478;-68
2022/08/28 03:34:06;;;;;;;6.40;2.85;;;13.40;62.40;;;;;;4991800;28;20038;-68
2022/08/28 03:36:33;;;;;;;7.35;2.88;;;13.40;62.50;;;;;;4981857;28;20522;-68
2022/08/28 03:39:02;;;;;;;4.10;2.67;;;13.30;62.50;;;;;;4974440;28;20062;-68
2022/08/28 03:41:29;;;;;;;6.65;3.65;;;13.30;62.50;;;;;;4992336;28;20057;-68
2022/08/28 03:43:56;;;;;;;5.65;2.95;;;13.30;62.60;;;;;;4991805;28;20042;-68
2022/08/28 03:46:25;;;;;;;3.92;2.35;;;13.30;62.70;;;;;;4958772;28;20049;-68
2022/08/28 03:48:52;;;;;;;5.57;2.40;;;13.30;62.60;;;;;;4958184;28;20121;-68
2022/08/28 03:51:22;;;;;;;3.60;2.35;;;13.30;62.60;;;;;;4990763;28;20046;-68
2022/08/28 03:53:48;;;;;;;6.43;3.13;;;13.20;62.60;;;;;;4990149;28;20085;-67
2022/08/28 03:56:20;;;;;;;4.85;2.63;;;13.30;62.60;;;;;;4991960;28;20466;-67
2022/08/28 03:58:47;;;;;;;6.70;2.95;;;13.30;62.60;;;;;;4984631;28;20050;-68
2022/08/28 04:01:12;;;;;;;5.55;2.55;;;13.20;62.60;;;;;;4977405;28;20126;-67
2022/08/28 04:03:38;;;;;;;6.30;2.60;;;13.20;62.70;;;;;;4958293;28;20125;-68
2022/08/28 04:06:04;;;;;;;4.88;2.55;;;13.20;62.70;;;;;;5009335;28;20046;-68
2022/08/28 04:08:30;;;;;;;5.47;2.60;;;13.20;62.70;;;;;;4985764;28;20043;-68
2022/08/28 04:10:59;;;;;;;4.70;2.40;;;13.20;62.70;;;;;;4982644;28;20038;-67
2022/08/28 04:13:25;;;;;;;5.32;3.17;;;13.10;62.70;;;;;;4959359;28;20053;-67
2022/08/28 04:16:09;;;;;;;4.75;2.78;;;13.20;62.70;;;;;;4975593;28;20070;-67
2022/08/28 04:18:35;;;;;;;3.85;2.58;;;13.10;62.80;;;;;;4986163;28;20046;-68
2022/08/28 04:21:11;;;;;;;5.55;2.50;;;13.10;62.80;;;;;;4982632;28;20129;-68
2022/08/28 04:23:38;;;;;;;5.40;2.78;;;13.10;63.00;;;;;;4973577;28;20513;-68
2022/08/28 04:26:05;;;;;;;5.30;2.97;;;13.00;62.90;;;;;;4987919;28;20367;-68
2022/08/28 04:28:32;;;;;;;4.30;2.70;;;13.00;63.00;;;;;;4993261;28;20046;-69
2022/08/28 04:30:57;;;;;;;4.97;2.38;;;13.00;63.00;;;;;;4982739;28;20093;-70
2022/08/28 04:33:25;;;;;;;5.13;2.70;;;13.00;62.90;;;;;;4990360;28;20441;-70
2022/08/28 04:35:51;;;;;;;6.07;2.58;;;13.00;62.90;;;;;;4988851;28;20054;-70
2022/08/28 04:38:17;;;;;;;4.28;2.30;;;13.00;62.80;;;;;;4991987;28;20062;-70
2022/08/28 04:40:43;;;;;;;5.32;2.63;;;13.00;62.80;;;;;;4981112;28;20038;-70
2022/08/28 04:43:09;;;;;;;7.18;2.75;;;12.90;62.80;;;;;;4994038;28;20042;-70
2022/08/28 04:45:42;;;;;;;3.55;2.00;;;13.00;62.90;;;;;;4987163;28;20042;-70
2022/08/28 04:48:09;;;;;;;4.35;2.53;;;12.90;63.00;;;;;;4977757;28;20059;-68
2022/08/28 04:50:39;;;;;;;5.03;2.63;;;12.90;63.00;;;;;;4987055;28;20042;-68
2022/08/28 04:53:05;;;;;;;3.67;2.40;;;12.90;63.30;;;;;;4979276;28;20140;-67
2022/08/28 04:55:31;;;;;;;6.15;2.97;;;12.90;63.40;;;;;;4989579;28;20078;-69
2022/08/28 04:57:56;;;;;;;3.70;2.38;;;12.90;63.70;;;;;;4992729;28;20124;-70
2022/08/28 05:00:22;;;;;;;5.22;2.75;;;12.90;64.10;;;;;;4990155;28;20121;-70
2022/08/28 05:02:48;;;;;;;4.13;2.47;;;12.90;64.40;;;;;;4973048;28;20122;-70
2022/08/28 05:05:14;;;;;;;4.80;2.50;;;12.90;64.60;;;;;;4964638;28;20126;-70
2022/08/28 05:07:39;;;;;;;5.85;2.70;;;12.90;64.80;;;;;;4973151;28;20042;-70
2022/08/28 05:10:06;;;;;;;6.82;2.85;;;12.90;64.90;;;;;;4973160;28;20042;-70
2022/08/28 05:12:34;;;;;;;5.03;3.03;;;12.90;65.10;;;;;;5005359;28;20054;-70
2022/08/28 05:15:00;;;;;;;5.40;2.90;;;12.90;65.40;;;;;;5007625;28;20039;-70
2022/08/28 05:17:26;;;;;;;4.13;2.67;;;12.90;65.50;;;;;;4991899;28;20042;-71
2022/08/28 05:19:53;;;;;;;4.93;2.80;;;12.90;65.70;;;;;;4988693;28;20053;-70
2022/08/28 05:22:19;;;;;;;7.90;3.10;;;12.90;65.70;;;;;;4987580;28;20141;-70
2022/08/28 05:24:44;;;;;;;5.18;2.85;;;12.90;65.90;;;;;;4974333;28;20085;-70
2022/08/28 05:27:10;;;;;;;7.07;3.00;;;12.90;66.10;;;;;;4987290;28;20104;-70
2022/08/28 05:29:36;;;;;;;5.75;3.20;;;13.00;66.30;;;;;;4998758;28;20121;-70
2022/08/28 05:32:02;;;;;;;7.78;2.90;;;13.00;66.50;;;;;;4990895;28;20042;-70
2022/08/28 05:34:28;;;;;;;7.15;3.33;;;13.00;66.50;;;;;;4986559;28;20050;-67
2022/08/28 05:36:53;;;;;;;6.97;2.70;;;13.00;66.60;;;;;;5011279;28;20498;-67
2022/08/28 05:39:19;;;;;;;4.03;2.80;;;13.00;66.60;;;;;;4979125;28;20117;-70
2022/08/28 05:41:46;;;;;;;6.07;2.80;;;13.00;67.00;;;;;;4980179;28;20121;-70
2022/08/28 05:44:14;;;;;;;6.10;2.58;;;13.00;66.80;;;;;;4998415;28;20498;-70
2022/08/28 05:46:43;;;;;;;6.45;2.97;;;13.10;67.00;;;;;;4996983;28;20038;-70
2022/08/28 05:49:09;;;;;;;5.57;2.75;;;13.10;67.10;;;;;;4998486;28;20046;-70
2022/08/28 05:51:35;;;;;;;6.72;3.17;;;13.10;67.10;;;;;;4993306;28;20364;-70
2022/08/28 05:54:02;;;;;;;5.90;3.33;;;13.10;67.40;;;;;;4979024;28;20487;-70
2022/08/28 05:56:31;;;;;;;7.30;3.22;;;13.10;67.60;;;;;;4982708;28;20046;-70
2022/08/28 05:58:59;;;;;;;6.82;2.78;;;13.20;68.20;;;;;;4997155;28;20101;-70
2022/08/28 06:01:28;;;;;;;8.55;3.05;;;13.20;68.70;;;;;;4993953;28;20051;-70
2022/08/28 06:04:02;;;;;;;8.23;3.03;;;13.30;69.40;;;;;;4997829;28;20176;-70
2022/08/28 06:06:32;;;;;;;;;;;13.50;70.00;;;;;;4997802;28;20137;-70
2022/08/28 06:09:20;;;;;;;7.97;3.33;;;13.80;69.80;;;;;;4998495;28;19924;-70
2022/08/28 06:11:46;;;;;;;7.78;2.92;;;14.20;69.90;;;;;;4996934;28;20045;-70
2022/08/28 06:14:14;;;;;;;6.80;2.88;;;14.70;69.40;;;;;;4997364;28;20079;-71
2022/08/28 06:16:42;;;;;;;7.40;2.47;;;15.20;68.70;;;;;;4969152;28;20047;-71
2022/08/28 06:19:10;;;;;;;8.93;2.40;;;15.80;67.60;;;;;;4980084;28;20053;-71
2022/08/28 06:21:37;;;;;;;8.43;2.83;;;16.30;66.80;;;;;;4988360;28;20101;-71
2022/08/28 06:24:03;;;;;;;5.38;2.38;;;16.90;65.50;;;;;;4993083;28;20046;-71
2022/08/28 06:26:29;;;;;;;7.63;2.38;;;17.50;64.10;;;;;;4981209;28;20039;-71
2022/08/28 06:29:03;;;;;;;8.38;2.63;;;17.90;63.40;;;;;;4995635;28;20366;-71
2022/08/28 06:31:29;;;;;;;7.20;2.38;;;18.40;61.80;;;;;;4979140;28;20122;-71
2022/08/28 06:33:57;;;;;;;6.72;2.28;;;18.90;60.80;;;;;;4979281;28;20050;-71
2022/08/28 06:36:26;;;;;;;6.72;2.70;;;19.30;59.60;;;;;;4978653;28;20063;-71
2022/08/28 06:38:53;;;;;;;6.22;2.20;;;19.80;59.00;;;;;;4982041;28;20514;-71
2022/08/28 06:41:20;;;;;;;3.88;1.80;;;20.20;58.10;;;;;;5007717;28;20109;-71
2022/08/28 06:43:46;;;;;;;5.35;1.98;;;20.60;57.30;;;;;;4975383;28;20050;-71
2022/08/28 06:46:11;;;;;;;3.85;1.58;;;21.00;56.60;;;;;;4975404;28;20046;-71
2022/08/28 06:48:37;;;;;;;4.20;1.77;;;21.30;55.70;;;;;;4986174;28;20046;-71
2022/08/28 06:51:08;;;;;;;6.82;2.10;;;21.60;54.70;;;;;;4975686;28;20047;-71
2022/08/28 06:53:35;;;;;;;6.53;2.00;;;21.80;54.00;;;;;;4991074;28;20042;-71
2022/08/28 06:56:17;;;;;;;4.80;2.00;;;22.10;53.40;;;;;;5007662;28;20047;-71
2022/08/28 06:58:44;;;;;;;6.82;1.65;;;22.30;52.90;;;;;;5011019;28;20453;-71
2022/08/28 07:01:13;;;;;;;7.15;1.70;;;22.50;52.70;;;;;;4994073;28;20125;-71
2022/08/28 07:03:39;;;;;;;4.10;2.10;;;22.70;52.10;;;;;;4976308;28;20096;-71
2022/08/28 07:06:07;;;;;;;6.28;1.80;;;22.90;51.40;;;;;;4994690;28;20470;-71
2022/08/28 07:08:34;;;;;;;5.20;1.52;;;23.10;51.00;;;;;;4993483;28;20504;-71
2022/08/28 07:11:19;;;;;;;4.45;1.80;;;23.30;50.40;;;;;;4993977;28;20129;-71
2022/08/28 07:13:45;;;;;;;5.70;1.80;;;23.40;49.70;;;;;;5000233;28;20483;-71
2022/08/28 07:16:13;;;;;;;4.57;1.70;;;23.60;49.10;;;;;;5007448;28;20082;-71
2022/08/28 07:18:40;;;;;;;8.55;1.83;;;23.60;48.80;;;;;;5010343;28;20046;-71
2022/08/28 07:21:06;;;;;;;7.10;1.80;;;23.70;48.40;;;;;;4992077;28;20074;-72
2022/08/28 07:23:33;;;;;;;6.35;1.90;;;23.70;48.50;;;;;;4986132;28;20078;-72
2022/08/28 07:26:02;;;;;;;5.03;1.52;;;23.70;48.60;;;;;;4991367;28;20122;-72
2022/08/28 07:28:28;;;;;;;5.85;1.50;;;23.70;48.30;;;;;;4991454;28;20414;-72
2022/08/28 07:31:03;;;;;;;5.15;1.65;;;23.70;47.90;;;;;;4974723;28;20043;-72
2022/08/28 07:33:30;;;;;;;5.75;1.73;;;23.70;47.60;;;;;;4994263;28;20130;-72
2022/08/28 07:35:56;;;;;;;5.53;1.60;;;23.70;47.60;;;;;;4982355;28;20414;-72
2022/08/28 07:38:24;;;;;;;4.10;1.35;;;23.60;47.40;;;;;;4990414;28;20046;-72
2022/08/28 07:40:50;;;;;;;4.03;1.40;;;23.60;47.00;;;;;;4993643;28;20050;-72
2022/08/28 07:46:05;;;;;;;8.23;1.55;;;23.50;46.60;;;;;;4974659;28;20101;-72
2022/08/28 07:48:35;;;;;;;5.75;1.85;;;23.50;46.50;;;;;;4974716;28;20049;-72
2022/08/28 07:51:02;;;;;;;3.78;1.10;;;23.40;46.20;;;;;;4974233;28;20047;-72
2022/08/28 07:53:28;;;;;;;5.65;1.50;;;23.30;46.50;;;;;;4979897;28;20100;-72
2022/08/28 07:55:54;;;;;;;6.15;1.50;;;23.20;46.40;;;;;;4993713;28;20050;-72
2022/08/28 07:58:20;;;;;;;6.22;1.70;;;23.20;46.20;;;;;;4988695;28;20173;-72
2022/08/28 08:00:46;;;;;;;4.30;1.10;;;23.10;46.20;;;;;;4982323;28;20053;-72
2022/08/28 08:03:13;;;;;;;6.97;1.70;;;23.00;46.80;;;;;;4983027;28;20050;-71
2022/08/28 08:05:40;;;;;;;6.32;1.77;;;23.10;46.90;;;;;;4977360;28;20085;-71
2022/08/28 08:08:05;;;;;;;3.67;1.20;;;23.20;47.00;;;;;;4992499;28;20114;-72
2022/08/28 08:10:31;;;;;;;4.38;1.40;;;23.20;46.90;;;;;;4974213;28;20178;-72
2022/08/28 08:12:57;;;;;;;5.20;1.77;;;23.20;46.60;;;;;;4975302;28;20050;-72
2022/08/28 08:15:22;;;;;;;5.53;1.10;;;23.30;46.50;;;;;;4979759;28;20569;-72
2022/08/28 08:17:48;;;;;;;3.00;1.33;;;23.30;45.80;;;;;;4984277;28;20058;-72
2022/08/28 08:20:14;;;;;;;2.92;1.33;;;23.30;45.60;;;;;;4975299;28;20078;-72
2022/08/28 08:22:39;;;;;;;5.50;1.42;;;23.20;45.60;;;;;;4986663;28;20042;-72
2022/08/28 08:25:05;;;;;;;3.72;1.10;;;23.10;45.50;;;;;;4977520;28;20050;-72
2022/08/28 08:27:34;;;;;;;3.88;1.30;;;23.00;45.60;;;;;;4974054;28;20054;-72
2022/08/28 08:30:00;;;;;;;4.68;1.50;;;23.00;44.90;;;;;;4992674;28;20078;-72
2022/08/28 08:32:26;;;;;;;6.75;1.70;;;23.00;44.50;;;;;;4972570;28;20043;-72
2022/08/28 08:34:57;;;;;;;4.82;1.42;;;22.80;45.40;;;;;;4990437;28;20078;-72
2022/08/28 08:37:22;;;;;;;6.45;1.80;;;22.80;45.50;;;;;;4992432;28;20046;-69
2022/08/28 08:39:49;;;;;;;5.53;1.50;;;22.70;45.30;;;;;;4963912;28;20065;-68
2022/08/28 08:42:21;;;;;;;4.57;1.30;;;22.60;45.60;;;;;;4959247;28;20462;-68
2022/08/28 08:44:50;;;;;;;3.58;1.52;;;22.60;46.10;;;;;;4982330;28;20039;-68
2022/08/28 08:47:37;;;;;;;8.60;2.65;;;22.50;46.10;;;;;;4957369;28;20043;-69
2022/08/28 08:50:09;;;;;;;5.20;1.67;;;22.50;46.10;;;;;;4984262;28;20041;-69
2022/08/28 08:53:13;;;;;;;4.97;1.45;;;22.40;46.40;;;;;;4970329;28;20105;-69
2022/08/28 08:55:51;;;;;;;4.63;1.33;;;22.50;46.80;;;;;;4971593;28;20047;-69
2022/08/28 08:58:17;;;;;;;2.70;1.30;;;22.50;46.60;;;;;;4973318;28;20504;-69
2022/08/28 09:01:13;;;;;;;3.38;1.23;;;22.60;46.10;;;;;;4988536;28;20046;-69
2022/08/28 09:03:57;;;;;;;5.13;1.40;;;22.70;45.60;;;;;;4983055;28;20031;-68
2022/08/28 09:06:40;;;;;;;6.78;1.60;;;22.80;45.40;;;;;;4966218;28;20047;-68
2022/08/28 09:09:16;;;;;;;4.45;1.75;;;22.80;45.70;;;;;;4973563;28;20169;-68
2022/08/28 09:11:53;;;;;;;5.82;1.50;;;22.80;45.50;;;;;;4973052;28;20042;-68
2022/08/28 09:15:04;;;;;;;5.93;1.85;;;22.80;45.40;;;;;;4975348;28;20545;-68
2022/08/28 09:18:04;;;;;;;4.57;1.73;;;22.80;45.10;;;;;;4955203;28;20522;-68
2022/08/28 09:20:30;;;;;;;3.92;1.50;;;22.70;45.80;;;;;;4973012;28;20054;-68
2022/08/28 09:22:56;;;;;;;5.80;1.80;;;22.60;45.60;;;;;;4973829;28;20066;-68
2022/08/28 09:25:43;;;;;;;5.03;1.60;;;22.70;45.80;;;;;;4959525;28;20043;-68
2022/08/28 09:28:14;;;;;;;4.68;1.40;;;22.60;45.90;;;;;;4972723;28;20387;-68
2022/08/28 09:30:42;;;;;;;5.70;1.42;;;22.50;46.30;;;;;;4981135;28;20393;-68
2022/08/28 09:33:08;;;;;;;5.15;1.65;;;22.50;46.40;;;;;;4992101;28;20046;-68
2022/08/28 09:35:36;;;;;;;4.75;1.70;;;22.60;46.30;;;;;;4992261;28;20061;-68
2022/08/28 09:38:23;;;;;;;4.93;1.77;;;22.70;46.10;;;;;;4992669;28;20046;-68
2022/08/28 09:43:36;;;;;;;3.75;1.35;;;22.80;44.60;;;;;;4972809;28;20051;-68
2022/08/28 09:46:20;;;;;;;5.85;1.77;;;22.70;45.20;;;;;;4961742;28;20054;-68
2022/08/28 09:48:51;;;;;;;3.85;1.60;;;22.60;44.60;;;;;;4992062;28;20070;-68
2022/08/28 09:51:19;;;;;;;6.30;1.30;;;22.50;45.60;;;;;;4978111;28;20058;-68
2022/08/28 09:54:22;;;;;;;6.18;1.92;;;22.50;45.70;;;;;;4984658;28;20053;-68
2022/08/28 09:56:49;;;;;;;5.50;1.50;;;22.60;46.10;;;;;;4971071;28;20516;-68
2022/08/28 09:59:23;;;;;;;6.55;1.60;;;22.60;45.70;;;;;;4987325;28;20104;-68
2022/08/28 10:01:55;;;;;;;4.13;1.50;;;22.70;45.50;;;;;;4990156;28;20083;-68
2022/08/28 10:04:47;;;;;;;6.93;1.75;;;22.80;45.00;;;;;;4986589;28;20054;-68
2022/08/28 10:07:28;;;;;;;4.35;1.25;;;22.80;45.20;;;;;;4972157;28;20079;-68
2022/08/28 10:10:34;;;;;;;4.60;1.38;;;22.70;45.40;;;;;;4983304;28;20117;-68
2022/08/28 10:13:03;;;;;;;3.10;1.50;;;22.70;45.50;;;;;;4981450;28;20046;-68
2022/08/28 10:15:57;;;;;;;4.75;1.42;;;22.60;45.50;;;;;;4978542;28;20051;-68
2022/08/28 10:18:47;;;;;;;4.80;1.80;;;22.50;45.40;;;;;;4947213;28;20089;-68
2022/08/28 10:21:21;;;;;;;7.90;1.95;;;22.50;45.80;;;;;;4995375;28;20449;-69
2022/08/28 10:24:04;;;;;;;3.97;1.55;;;22.50;46.30;;;;;;4983453;28;20521;-69
2022/08/28 10:26:51;;;;;;;10.48;1.75;;;22.50;46.60;;;;;;4986652;28;20050;-72
2022/08/28 10:29:47;;;;;;;5.43;1.88;;;22.50;46.30;;;;;;4995284;28;20035;-68
2022/08/28 10:32:55;;;;;;;5.25;1.63;;;22.50;45.60;;;;;;4993967;28;20054;-68
2022/08/28 10:35:38;;;;;;;6.97;1.90;;;22.50;45.60;;;;;;4992939;28;20058;-69
2022/08/28 10:38:10;;;;;;;5.07;1.90;;;22.50;45.30;;;;;;4985980;28;20078;-68
2022/08/28 10:40:40;;;;;;;4.63;1.67;;;22.50;44.80;;;;;;4976497;28;20042;-68
2022/08/28 10:43:13;;;;;;;5.28;1.60;;;22.50;45.20;;;;;;4978790;28;20050;-68
2022/08/28 10:45:40;;;;;;;5.35;1.60;;;22.50;45.30;;;;;;4992396;28;20049;-68
2022/08/28 10:48:16;;;;;;;3.97;1.27;;;22.50;45.50;;;;;;4976901;28;20042;-68
2022/08/28 10:51:04;;;;;;;4.45;1.67;;;22.60;45.90;;;;;;4988347;28;20557;-68
2022/08/28 10:53:37;;;;;;;6.55;1.70;;;22.60;45.60;;;;;;4993723;28;20081;-68
2022/08/28 10:56:08;;;;;;;3.73;1.60;;;22.80;44.90;;;;;;4995428;28;20560;-68
2022/08/28 10:58:39;;;;;;;6.82;1.90;;;22.90;44.80;;;;;;4982063;28;20046;-68
2022/08/28 11:01:12;;;;;;;4.70;1.13;;;23.00;44.10;;;;;;4962413;28;20437;-68
2022/08/28 11:03:45;;;;;;;5.88;1.92;;;23.00;42.90;;;;;;4965977;28;20042;-68
2022/08/28 11:06:29;;;;;;;4.73;1.40;;;23.00;42.70;;;;;;4992646;28;20486;-68
2022/08/28 11:08:57;;;;;;;;;;;22.90;42.80;;;;;;4975415;28;20074;-68
2022/08/28 11:11:51;;;;;;;5.10;1.58;;;22.70;43.70;;;;;;4985424;28;20285;-68
2022/08/28 11:14:29;;;;;;;5.68;1.63;;;22.70;43.80;;;;;;4985679;28;20088;-68
2022/08/28 11:17:21;;;;;;;3.65;1.60;;;22.70;44.50;;;;;;4987543;28;20034;-68
2022/08/28 11:19:54;;;;;;;5.57;1.73;;;22.80;44.80;;;;;;4957631;28;20131;-68
2022/08/28 11:22:27;;;;;;;4.57;1.65;;;23.00;44.80;;;;;;4980654;28;20054;-68
2022/08/28 11:24:55;;;;;;;3.33;1.40;;;23.10;44.30;;;;;;4958232;28;20050;-68
2022/08/28 11:27:30;;;;;;;4.85;1.58;;;23.20;43.10;;;;;;4982863;28;20113;-69
2022/08/28 11:29:59;;;;;;;4.47;1.35;;;23.20;42.10;;;;;;4991679;28;20054;-69
2022/08/28 11:32:30;;;;;;;3.42;1.58;;;23.20;42.10;;;;;;4977974;28;20397;-67
2022/08/28 11:35:01;;;;;;;6.68;1.58;;;23.10;42.10;;;;;;4978974;28;20376;-68
2022/08/28 11:37:42;;;;;;;4.38;1.25;;;23.00;42.20;;;;;;4982293;28;20062;-68
2022/08/28 11:40:16;;;;;;;4.65;1.65;;;23.00;42.30;;;;;;4974862;28;20483;-68
2022/08/28 11:42:41;;;;;;;6.85;1.80;;;23.00;42.90;;;;;;4980747;28;20125;-68
2022/08/28 11:45:18;;;;;;;3.72;1.48;;;23.00;43.40;;;;;;4986640;28;20168;-68
2022/08/28 11:47:46;;;;;;;4.10;1.27;;;23.00;42.80;;;;;;4981416;28;20545;-68
2022/08/28 11:50:32;;;;;;;3.60;1.70;;;23.00;42.30;;;;;;4983026;28;20034;-68
2022/08/28 11:53:23;;;;;;;3.15;1.50;;;23.10;41.80;;;;;;4965187;28;20047;-68
2022/08/28 11:56:08;;;;;;;4.10;1.55;;;23.00;41.60;;;;;;4984573;28;20050;-68
2022/08/28 11:58:46;;;;;;;5.03;1.75;;;23.00;41.20;;;;;;4968527;28;20047;-68
2022/08/28 12:01:24;;;;;;;5.10;1.63;;;23.00;41.20;;;;;;4980214;28;20049;-69
2022/08/28 12:04:12;;;;;;;4.47;1.52;;;23.00;41.40;;;;;;4993261;28;20380;-69
2022/08/28 12:06:43;;;;;;;4.72;1.77;;;23.00;41.20;;;;;;4993480;28;20072;-69
2022/08/28 12:09:33;;;;;;;3.53;1.65;;;23.00;40.90;;;;;;4977658;28;20035;-69
2022/08/28 12:12:01;;;;;;;4.50;1.55;;;23.00;40.50;;;;;;4968865;28;20082;-69
2022/08/28 12:14:27;;;;;;;2.53;1.23;;;23.00;40.20;;;;;;4992134;28;20085;-69
2022/08/28 12:17:15;;;;;;;3.20;1.38;;;23.00;40.70;;;;;;4993363;28;20054;-69
2022/08/28 12:20:13;;;;;;;5.53;1.80;;;23.10;41.00;;;;;;4975036;28;20058;-69
2022/08/28 12:22:48;;;;;;;4.10;1.63;;;23.20;41.60;;;;;;5006709;28;20398;-69
2022/08/28 12:25:24;;;;;;;3.13;1.67;;;23.20;40.90;;;;;;4981642;28;20436;-69
2022/08/28 12:27:51;;;;;;;4.95;1.30;;;23.10;40.80;;;;;;4957852;28;20070;-68
2022/08/28 12:30:27;;;;;;;4.22;1.48;;;23.10;41.50;;;;;;4973636;28;20057;-68
2022/08/28 12:33:03;;;;;;;6.35;1.77;;;23.20;41.40;;;;;;4976028;28;20039;-68
2022/08/28 12:35:29;;;;;;;5.10;1.65;;;23.10;42.00;;;;;;4990826;28;20521;-70
2022/08/28 12:37:56;;;;;;;7.72;1.60;;;23.10;42.20;;;;;;4985530;28;20047;-71
2022/08/28 12:40:37;;;;;;;5.93;1.45;;;23.00;42.20;;;;;;4973405;28;20079;-71
2022/08/28 12:43:08;;;;;;;5.28;1.83;;;23.00;42.50;;;;;;4973384;28;20054;-70
2022/08/28 12:45:33;;;;;;;4.40;1.70;;;23.00;42.80;;;;;;4973954;28;20124;-71
2022/08/28 12:48:09;;;;;;;6.20;2.20;;;23.00;42.90;;;;;;4985001;28;20038;-71
2022/08/28 12:50:38;;;;;;;5.45;1.83;;;23.00;43.00;;;;;;4957281;28;20049;-70
2022/08/28 12:53:10;;;;;;;6.82;1.75;;;23.00;43.10;;;;;;4985653;28;20050;-70
2022/08/28 12:55:38;;;;;;;7.10;2.10;;;23.10;42.80;;;;;;4976304;28;20042;-71
2022/08/28 12:58:11;;;;;;;5.13;1.65;;;23.20;42.50;;;;;;4992597;28;20557;-71
2022/08/28 13:00:58;;;;;;;4.15;1.75;;;23.10;42.50;;;;;;4992335;28;20494;-71
2022/08/28 13:03:24;;;;;;;6.60;1.67;;;23.10;42.10;;;;;;4992160;28;20906;-70
2022/08/28 13:06:06;;;;;;;3.97;2.05;;;23.00;41.50;;;;;;4992533;28;20077;-70
2022/08/28 13:08:33;;;;;;;8.77;1.67;;;22.90;41.10;;;;;;4993277;28;20053;-70
2022/08/28 13:11:00;;;;;;;4.43;1.65;;;22.80;41.30;;;;;;4975566;28;20046;-70
2022/08/28 13:13:33;;;;;;;5.65;1.30;;;22.80;42.00;;;;;;5018377;28;20046;-68
2022/08/28 13:16:11;;;;;;;5.03;1.25;;;22.80;41.60;;;;;;4992290;28;20482;-68